Terminal Aerodrome Forecast
Issued by NWS Pueblo, CO

Home | Current Version | Previous Version | Text Only | Print | Product List | Glossary On
Versions: 1 2 3 4 5 6 7 8 9 10 11 12 13 14 15 16 17 18 19 20 21 22 23 24 25 26 27 28 29 30 31 32 33 34 35 36 37 38
000
FTUS45 KPUB 262320
TAFPUB
TAF
KPUB 262320Z 2700/2724 12012KT 2SM -SN BR BKN015 OVC020
     FM270100 09012KT 1SM -SN BR BKN010 OVC015
     FM270600 06008KT 3SM -SN BR BKN010 OVC025
     FM271000 08008KT 5SM -SN BR BKN025 OVC040
     FM271900 11010KT 6SM -SHSN BR BKN040=

USA.gov is the U.S. government's official web portal to all federal, state and local government web resources and services.